Grand Forks Air Force Base
KRDR : now visible

Aeroporto :











RITROVATECI SU...

 
LOGIN :

Iscrizione | Disclaimer

   EN    FR    IT 

 









Sommario :    VFR   VFR Marginale   IFR   IFR Intensivo   IFR Molto Intensivo
Visibilità : 
Base nubi : 
>= 8 km
>= 3000ft
5 / 8 km
1000 / 3000 ft
1500m / 5 km
500 / 1000 ft
800 / 1500m
200 / 500 ft
< 800m
< 200 ft
Simboli :   Temporali  Nebbia  Neve Forte  Precipitazioni Forti  Vento > 20 kt






- Altitudine del aeroporto : 913 ft


KRDR - Grand Forks Air Force Base

ULTIMO METAR :
  • 240356Z 15011KT 10SM OVC022 M01/M04 A2995 RMK AO2A CIG 021 RWY35 SLP161 T10091044 $

METARs OBSOLETI :
  • 240326Z 15012KT 10SM OVC024 M01/M04 A2995 RMK AO2A CIG 023 RWY35 SLP162 $
  • 240256Z 15012KT 10SM OVC031 M01/M05 A2996 RMK AO2A SLP166 T10131046 57010 $
  • 240156Z 14012KT 10SM BKN100 M02/M05 A2998 RMK AO2A SLP173 T10251055 $

TAF TAF KRDR
Valido dal 24 a 02 ore il 25 a 08 ore UTC


240200Z 2402/2508 14012KT 9999 BKN100 BKN200 520052 QNH2995INS
BECMG 2402/2403 13009KT 9999 OVC030 620305 QNH2995INS
BECMG 2404/2405 14009KT 6000 -SN OVC015 650158 QNH2990INS
TEMPO 2405/2413 -FZDZ OVC008 660001
BECMG 2415/2416 VRB06KT 9999 NSW OVC020 620204 QNH2985INS
BECMG 2418/2419 30007KT 9999 OVC020 620204 QNH2982INS TX03/2417Z TNM03/2405Z
FIR KZMP / America del Nord



MetMap, La meteo Aeronautica in un colpo d'occhio ! - Copyright ORBIFLY Dicembre 2007 - Disclaimer

ORBIFLY MET'MAP TEAM :

Programmazione e sviluppo : Alexandra Zaïnal
Concezione : Baudouin d'Aumeries
Aiuto per la programmazione : Marc-Olivier Méhu
Supporto tecnico e logistico : Manuel Goepfert
Aiuto per la traduzione : Arnaldo La Scala

Contatto : metmap@orbifly.com




FONTI E CREDITI :

   NOAA       Earth
Advisory